Flight Track Log - Related Links

Times and Time Zones

All times are in EDT time to prevent confusion due to time zone crossing. See the LXJ609 flight status page for this flight to view local times or setup timezone preferences in your user account.

Time Position Orientation Groundspeed Altitude Reporting Facility
EDT Latitude Longitude Course Direction KTS MPH feet Rate Location/Type
Thu 10:29:37 AM 40.9000 -74.0333 288° West 195 224 2,200  Level New York TRACON
Thu 10:30:37 AM 40.9167 -74.1000 288° West 237 273 4,800 1,800 Climbing New York TRACON
Thu 10:31:37 AM 40.9000 -74.1833 255° West 269 310 5,800 700 Climbing New York TRACON
Thu 10:32:37 AM 40.8500 -74.2500 225° Southwest 286 329 6,200 850 Climbing New York TRACON
Thu 10:33:37 AM 40.7667 -74.2500 180° South 281 323 7,500 2,526 Climbing New York TRACON
Thu 10:34:31 AM 40.7000 -74.2667 191° South 260 299 11,000 2,879 Climbing New York TRACON
Thu 10:36:55 AM 40.5631 -74.4344 223° Southwest 298 343 17,000 1,782 Climbing New York Center
Thu 10:37:53 AM 40.4936 -74.3869 153° Southeast 259 298 17,000  Level New York Center
Thu 10:38:54 AM 40.4575 -74.2733 113° Southeast 271 312 17,000  Level New York Center
Thu 10:39:54 AM 40.3883 -74.2153 147° Southeast 288 331 17,000 694 Level New York Center
Thu 10:40:55 AM 40.2897 -74.2375 190° South 321 369 18,400 2,331 Climbing New York Center
Thu 10:41:55 AM 40.2003 -74.3092 211° Southwest 348 400 21,700 2,542 Climbing New York Center
Thu 10:42:53 AM 40.1103 -74.3914 215° Southwest 370 426 23,400 1,109 Climbing New York Center
Thu 10:43:54 AM 40.0200 -74.4761 216° Southwest 394 453 23,900 186 Climbing New York Center
Thu 10:46:07 AM 39.8286 -74.6431 214° Southwest 394 453 24,000 124 Climbing Washington Center
Thu 10:47:07 AM 39.7375 -74.7253 215° Southwest 394 453 24,300 2,370 Climbing Washington Center
Thu 10:48:06 AM 39.6400 -74.8128 215° Southwest 394 453 28,700 2,773 Climbing Washington Center
Thu 10:49:06 AM 39.5594 -74.8836 214° Southwest 394 453 29,800 645 Climbing Washington Center
Thu 10:50:07 AM 39.4619 -74.9706 215° Southwest 409 471 30,000 101 Climbing Washington Center
Thu 10:51:05 AM 39.3622 -75.0600 215° Southwest 435 501 30,000 504 Level Washington Center
Thu 10:52:06 AM 39.2542 -75.1333 208° Southwest 440 506 31,000 1,721 Climbing Washington Center
Thu 10:53:07 AM 39.1439 -75.1822 199° South 434 499 33,500 2,269 Climbing Washington Center
Thu 10:54:05 AM 39.0356 -75.2283 198° South 429 494 35,500 1,983 Climbing Washington Center
Thu 10:55:05 AM 38.9275 -75.2714 197° South 424 488 37,400 1,686 Climbing Washington Center
Thu 10:56:06 AM 38.8211 -75.3144 198° South 419 482 38,900 1,289 Climbing Washington Center
Thu 10:57:06 AM 38.7192 -75.3603 199° South 409 471 40,000 1,041 Climbing Washington Center
Thu 10:58:07 AM 38.6192 -75.4189 205° Southwest 397 457 41,000 992 Climbing Washington Center
Thu 10:59:07 AM 38.5256 -75.4828 208° Southwest 389 448 42,000 966 Climbing Washington Center
Thu 11:00:05 AM 38.4339 -75.5439 208° Southwest 381 438 42,900 504 Climbing Washington Center
Thu 11:01:06 AM 38.3378 -75.6050 207° Southwest 381 438 43,000 49 Climbing Washington Center
Thu 11:02:07 AM 38.2294 -75.6817 209° Southwest 391 450 43,000  Level Washington Center
Thu 11:03:05 AM 38.1231 -75.7528 208° Southwest 408 470 43,000  Level Washington Center
Thu 11:04:05 AM 38.0164 -75.8236 208° Southwest 430 495 43,000  Level Washington Center
Thu 11:05:06 AM 37.9078 -75.8997 209° Southwest 436 502 43,000  Level Washington Center
Thu 11:06:07 AM 37.7992 -75.9728 208° Southwest 441 507 43,000  Level Washington Center
Thu 11:07:05 AM 37.7053 -76.0406 210° Southwest 441 507 43,000  Level Washington Center
Thu 11:08:06 AM 37.6006 -76.1133 209° Southwest 441 507 43,000  Level Washington Center
Thu 11:09:07 AM 37.4814 -76.1886 207° Southwest 441 507 43,000  Level Washington Center
Thu 11:10:05 AM 37.3747 -76.2583 207° Southwest 436 502 43,000  Level Washington Center
Thu 11:11:05 AM 37.2678 -76.3306 208° Southwest 431 496 43,000  Level Washington Center
Thu 11:12:07 AM 37.1611 -76.3997 207° Southwest 431 496 43,000 -148 Level Washington Center
Thu 11:13:07 AM 37.0542 -76.4689 207° Southwest 431 496 42,700 -864 Descending Washington Center
Thu 11:14:05 AM 36.9492 -76.5406 209° Southwest 437 503 41,300 -1,462 Descending Washington Center
Thu 11:15:06 AM 36.8422 -76.6119 208° Southwest 432 497 39,800 -1,328 Descending Washington Center
Thu 11:16:07 AM 36.7375 -76.6806 208° Southwest 437 503 38,600 -908 Descending Washington Center
Thu 11:17:05 AM 36.6303 -76.7542 209° Southwest 437 503 38,000 -305 Descending Washington Center
Thu 11:18:05 AM 36.5211 -76.8222 207° Southwest 437 503 38,000  Level Washington Center
Thu 11:19:06 AM 36.4139 -76.8953 209° Southwest 442 509 38,000  Level Washington Center
Thu 11:20:07 AM 36.3025 -76.9631 206° Southwest 442 509 38,000 -347 Level Washington Center
Thu 11:21:07 AM 36.1911 -77.0333 207° Southwest 442 509 37,300 -864 Descending Washington Center
Thu 11:22:05 AM 36.0797 -77.1058 208° Southwest 442 509 36,300 -661 Descending Washington Center
Thu 11:23:05 AM 35.9828 -77.1706 208° Southwest 445 512 36,000 -149 Descending Washington Center
Thu 11:24:06 AM 35.8736 -77.2403 207° Southwest 445 512 36,000  Level Washington Center
Thu 11:25:06 AM 35.7597 -77.3122 207° Southwest 445 512 36,000  Level Washington Center
Thu 11:26:07 AM 35.6525 -77.3814 208° Southwest 445 512 36,000  Level Washington Center
Thu 11:27:07 AM 35.5408 -77.4503 207° Southwest 445 512 36,000 -712 Level Washington Center
Thu 11:28:05 AM 35.4292 -77.5217 208° Southwest 450 518 34,600 -1,412 Descending Washington Center
Thu 11:29:06 AM 35.3336 -77.6136 218° Southwest 455 524 33,200 -1,328 Descending Washington Center
Thu 11:30:07 AM 35.2503 -77.7311 229° Southwest 446 513 31,900 -1,361 Descending Washington Center
Thu 11:31:05 AM 35.1667 -77.8508 230° Southwest 460 529 30,500 -1,462 Descending Washington Center
Thu 11:32:06 AM 35.0850 -77.9678 230° Southwest 465 535 29,000 -1,475 Descending Washington Center
Thu 11:33:07 AM 35.0014 -78.0819 228° Southwest 465 535 27,500 -1,513 Descending Washington Center
Thu 11:34:05 AM 34.9175 -78.1983 229° Southwest 465 535 26,000 -1,475 Descending Washington Center
Thu 11:35:05 AM 34.8292 -78.3222 229° Southwest 458 527 24,600 -1,438 Descending Washington Center
Thu 11:36:06 AM 34.7600 -78.4258 231° Southwest 450 518 23,100 -1,871 Descending Washington Center
Thu 11:38:27 AM 34.5656 -78.6947 229° Southwest 430 495 18,300 -1,881 Descending Jacksonville Center
Thu 11:39:27 AM 34.4919 -78.8017 230° Southwest 419 482 16,800 -1,200 Descending Jacksonville Center
Thu 11:40:27 AM 34.4239 -78.8953 229° Southwest 419 482 15,900 -850 Descending Jacksonville Center
Thu 11:41:27 AM 34.3539 -78.9917 229° Southwest 407 468 15,100 -1,200 Descending Jacksonville Center
Thu 11:42:27 AM 34.2819 -79.0928 229° Southwest 397 457 13,500 -1,500 Descending Jacksonville Center
Thu 11:43:27 AM 34.2500 -79.2100 252° West 377 434 12,100 -1,350 Descending Jacksonville Center
Thu 11:44:27 AM 34.2178 -79.3242 251° West 371 427 10,800 -1,400 Descending Jacksonville Center
Thu 11:45:27 AM 34.1592 -79.3944 225° Southwest 314 361 9,300 -1,500 Descending Jacksonville Center
Thu 11:46:27 AM 34.1025 -79.4567 222° Southwest 296 341 7,800 -1,550 Descending Jacksonville Center
Thu 11:47:27 AM 34.0458 -79.5167 221° Southwest 284 327 6,200 -1,350 Descending Jacksonville Center
Thu 11:48:27 AM 33.9931 -79.5714 221° Southwest 274 315 5,100 -1,050 Descending Jacksonville Center
Thu 11:49:27 AM 33.9361 -79.6286 220° Southwest 274 315 4,100 450 Descending Jacksonville Center
Thu 11:50:27 AM 33.8750 -79.6933 221° Southwest 274 315 6,000 950 Climbing Jacksonville Center
Thu 11:51:27 AM 33.8183 -79.7528 221° Southwest 274 315 6,000  Level Jacksonville Center
Thu 11:53:00 AM 33.7167 -79.8500 228° Southwest  Level FlightAware Approximate
Thu 12:00:00 PM 33.7172 -79.8570 228° Southwest  Level Estimated
Thu 12:01:00 PM 33.7167 -79.8500 228° Southwest  Level FlightAware Approximate
Thu 12:02:00 PM 33.7172 -79.8570 228° Southwest  Level Estimated
Thu 12:03:00 PM 33.7167 -79.8500 228° Southwest  Level FlightAware Approximate
Thu 12:04:00 PM 33.7172 -79.8570 228° Southwest  Level Estimated
Thu 12:05:00 PM 33.7167 -79.8500 228° Southwest  Level FlightAware Approximate
Thu 12:06:00 PM 33.7172 -79.8570 228° Southwest  Level Estimated
Thu 12:07:00 PM 33.7167 -79.8500 228° Southwest  Level FlightAware Approximate
Thu 12:08:00 PM 33.7172 -79.8570 228° Southwest  Level Estimated
Thu 12:09:00 PM 33.7167 -79.8500 228° Southwest  Level FlightAware Approximate

Login

Don't have an account? Register now (free) for customized features, flight alerts, and more!